createdAt,value
2023-04-16T00:00:28.359Z,100.00
2023-04-16T00:02:56.773Z,100.00
2023-04-16T00:05:25.331Z,100.00
2023-04-16T00:07:54.931Z,100.00
2023-04-16T00:10:23.204Z,100.00
2023-04-16T00:12:51.408Z,100.00
2023-04-16T00:15:19.695Z,100.00
2023-04-16T00:17:47.999Z,100.00
2023-04-16T00:20:16.360Z,100.00
2023-04-16T00:22:44.595Z,100.00
2023-04-16T00:25:14.271Z,100.00
2023-04-16T00:27:42.611Z,100.00
2023-04-16T00:30:11.225Z,100.00
2023-04-16T00:32:39.669Z,100.00
2023-04-16T00:35:08.873Z,100.00
2023-04-16T00:37:37.178Z,100.00
2023-04-16T00:40:06.521Z,100.00
2023-04-16T00:42:37.152Z,100.00
2023-04-16T00:45:05.690Z,100.00
2023-04-16T00:47:33.927Z,100.00
2023-04-16T00:50:02.381Z,100.00
2023-04-16T00:52:31.216Z,100.00
2023-04-16T00:55:00.020Z,100.00
2023-04-16T00:57:28.306Z,100.00
2023-04-16T00:59:57.946Z,100.00
2023-04-16T01:02:26.435Z,100.00
2023-04-16T01:04:54.863Z,100.00
2023-04-16T01:07:23.110Z,100.00
2023-04-16T01:09:51.378Z,100.00
2023-04-16T01:12:19.651Z,100.00
2023-04-16T01:14:48.153Z,100.00
2023-04-16T01:17:17.828Z,100.00
2023-04-16T01:19:46.097Z,100.00
2023-04-16T01:22:16.350Z,100.00
2023-04-16T01:24:44.583Z,100.00
2023-04-16T01:27:12.890Z,100.00
2023-04-16T01:29:41.228Z,100.00
2023-04-16T01:32:09.450Z,100.00
2023-04-16T01:34:37.704Z,100.00
2023-04-16T01:37:06.504Z,99.68
2023-04-16T01:39:36.255Z,100.00
2023-04-16T01:42:04.540Z,99.72
2023-04-16T01:44:32.795Z,100.00
2023-04-16T01:47:01.303Z,100.00
2023-04-16T01:49:30.401Z,100.00
2023-04-16T01:51:58.695Z,99.28
2023-04-16T01:54:26.931Z,99.57
2023-04-16T01:56:57.046Z,100.00
2023-04-16T01:59:25.241Z,100.00
2023-04-16T02:01:53.678Z,94.86
2023-04-16T02:04:22.025Z,97.33
2023-04-16T02:06:50.568Z,90.44
2023-04-16T02:09:18.966Z,95.15
2023-04-16T02:11:47.177Z,100.00
2023-04-16T02:14:16.831Z,100.00
2023-04-16T02:16:45.136Z,100.00
2023-04-16T02:19:13.458Z,100.00
2023-04-16T02:21:41.809Z,100.00
2023-04-16T02:24:10.093Z,100.00
2023-04-16T02:26:38.330Z,100.00
2023-04-16T02:29:06.880Z,100.00
2023-04-16T02:31:36.758Z,100.00
2023-04-16T02:34:05.649Z,100.00
2023-04-16T02:36:33.937Z,100.00
2023-04-16T02:39:02.392Z,100.00
2023-04-16T02:41:30.729Z,100.00
2023-04-16T02:43:59.026Z,100.00
2023-04-16T02:46:27.386Z,100.00
2023-04-16T02:48:57.050Z,100.00
2023-04-16T02:51:25.928Z,100.00
2023-04-16T02:53:54.217Z,100.00
2023-04-16T02:56:22.475Z,100.00
2023-04-16T02:58:50.740Z,100.00
2023-04-16T03:01:19.110Z,100.00
2023-04-16T03:03:47.450Z,100.00
2023-04-16T03:06:17.063Z,100.00
2023-04-16T03:08:45.439Z,100.00
2023-04-16T03:11:13.679Z,100.00
2023-04-16T03:13:41.978Z,100.00
2023-04-16T03:16:10.595Z,100.00
2023-04-16T03:18:38.914Z,100.00
2023-04-16T03:21:07.262Z,100.00
2023-04-16T03:23:36.896Z,100.00
2023-04-16T03:26:05.371Z,100.00
2023-04-16T03:28:33.647Z,100.00
2023-04-16T03:31:01.959Z,100.00
2023-04-16T03:33:30.291Z,100.00
2023-04-16T03:35:59.126Z,100.00
2023-04-16T03:38:27.648Z,97.65
2023-04-16T03:40:57.381Z,98.27
2023-04-16T03:43:25.617Z,98.90
2023-04-16T03:45:53.870Z,100.00
2023-04-16T03:48:22.134Z,100.00
2023-04-16T03:50:50.375Z,100.00
2023-04-16T03:53:18.701Z,98.17
2023-04-16T03:55:46.972Z,100.00
2023-04-16T03:58:16.603Z,100.00
2023-04-16T04:00:44.914Z,100.00
2023-04-16T04:03:13.790Z,100.00
2023-04-16T04:05:42.820Z,100.00
2023-04-16T04:08:12.547Z,100.00
2023-04-16T04:10:40.775Z,100.00
2023-04-16T04:13:08.990Z,100.00
2023-04-16T04:15:38.844Z,96.21
2023-04-16T04:18:07.101Z,96.94
2023-04-16T04:20:35.379Z,97.67
2023-04-16T04:23:03.594Z,100.00
2023-04-16T04:25:32.028Z,99.76
2023-04-16T04:28:00.287Z,95.41
2023-04-16T04:30:28.617Z,96.56
2023-04-16T04:32:59.807Z,100.00
2023-04-16T04:35:28.327Z,100.00
2023-04-16T04:37:56.721Z,100.00
2023-04-16T04:40:25.013Z,100.00
2023-04-16T04:42:53.233Z,100.00
2023-04-16T04:45:21.559Z,100.00
2023-04-16T04:47:49.905Z,100.00
2023-04-16T04:50:19.809Z,100.00
2023-04-16T04:52:48.053Z,100.00
2023-04-16T04:55:16.492Z,100.00
2023-04-16T04:57:44.704Z,100.00
2023-04-16T05:00:13.438Z,100.00
2023-04-16T05:02:41.832Z,100.00
2023-04-16T05:05:10.624Z,100.00
2023-04-16T05:07:40.323Z,100.00
2023-04-16T05:10:10.136Z,100.00
2023-04-16T05:12:38.380Z,100.00
2023-04-16T05:15:07.547Z,100.00
2023-04-16T05:17:35.789Z,100.00
2023-04-16T05:20:04.212Z,100.00
2023-04-16T05:22:32.476Z,100.00
2023-04-16T05:25:02.058Z,95.63
2023-04-16T05:27:30.310Z,98.47
2023-04-16T05:29:58.667Z,97.21
2023-04-16T05:32:27.858Z,100.00
2023-04-16T05:34:56.257Z,96.25
2023-04-16T05:37:24.553Z,89.56
2023-04-16T05:39:52.824Z,91.57
2023-04-16T05:42:22.424Z,86.63
2023-04-16T05:44:52.190Z,94.84
2023-04-16T05:47:20.471Z,83.98
2023-04-16T05:49:48.701Z,80.19
2023-04-16T05:52:17.015Z,74.12
2023-04-16T05:54:45.420Z,96.28
2023-04-16T05:57:14.640Z,85.33
2023-04-16T05:59:44.220Z,88.84
2023-04-16T06:02:12.612Z,78.78
2023-04-16T06:04:41.059Z,82.86
2023-04-16T06:07:09.307Z,73.94
2023-04-16T06:09:37.573Z,71.00
2023-04-16T06:12:06.247Z,79.98
2023-04-16T06:14:34.506Z,71.59
2023-04-16T06:17:04.137Z,70.51
2023-04-16T06:19:32.382Z,75.00
2023-04-16T06:22:00.650Z,72.12
2023-04-16T06:24:28.992Z,76.80
2023-04-16T06:26:57.463Z,73.52
2023-04-16T06:29:33.712Z,76.12
2023-04-16T06:32:10.577Z,74.81
2023-04-16T06:34:39.150Z,78.55
2023-04-16T06:37:10.384Z,75.59
2023-04-16T06:39:39.062Z,87.10
2023-04-16T06:42:07.365Z,84.96
2023-04-16T06:44:36.516Z,82.67
2023-04-16T06:47:04.870Z,76.13
2023-04-16T06:49:34.674Z,81.64
2023-04-16T06:52:05.169Z,77.70
2023-04-16T06:54:34.299Z,80.76
2023-04-16T06:57:02.539Z,76.28
2023-04-16T06:59:30.907Z,72.70
2023-04-16T07:01:59.272Z,74.11
2023-04-16T07:04:27.566Z,66.40
2023-04-16T07:06:57.309Z,82.88
2023-04-16T07:09:26.728Z,71.69
2023-04-16T07:11:55.315Z,69.10
2023-04-16T07:14:23.514Z,62.91
2023-04-16T07:16:51.951Z,71.26
2023-04-16T07:19:20.456Z,68.43
2023-04-16T07:21:48.679Z,66.29
2023-04-16T07:24:18.504Z,80.78
2023-04-16T07:26:46.740Z,69.51
2023-04-16T07:29:14.976Z,72.80
2023-04-16T07:31:43.347Z,74.65
2023-04-16T07:34:11.709Z,68.70
2023-04-16T07:36:40.045Z,67.47
2023-04-16T07:39:08.863Z,68.07
2023-04-16T07:41:40.740Z,78.84
2023-04-16T07:44:09.046Z,64.47
2023-04-16T07:46:46.376Z,66.59
2023-04-16T07:49:15.506Z,72.95
2023-04-16T07:51:43.869Z,67.93
2023-04-16T07:54:12.096Z,69.04
2023-04-16T07:56:41.903Z,68.02
2023-04-16T07:59:21.833Z,71.39
2023-04-16T08:01:51.697Z,75.49
2023-04-16T08:04:24.579Z,79.11
2023-04-16T08:06:53.454Z,76.03
2023-04-16T08:09:23.591Z,68.82
2023-04-16T08:11:53.263Z,62.40
2023-04-16T08:14:21.570Z,67.90
2023-04-16T08:16:50.289Z,67.18
2023-04-16T08:19:18.581Z,62.66
2023-04-16T08:21:46.962Z,66.59
2023-04-16T08:24:15.748Z,62.80
2023-04-16T08:26:44.080Z,59.88
2023-04-16T08:29:13.814Z,60.61
2023-04-16T08:31:42.893Z,63.55
2023-04-16T08:34:12.681Z,75.20
2023-04-16T08:36:41.812Z,65.82
2023-04-16T08:39:10.411Z,60.40
2023-04-16T08:41:42.194Z,64.31
2023-04-16T08:44:15.647Z,54.66
2023-04-16T08:46:45.309Z,53.98
2023-04-16T08:49:18.029Z,51.41
2023-04-16T08:51:51.846Z,48.65
2023-04-16T08:54:27.756Z,53.47
2023-04-16T08:56:57.215Z,49.37
2023-04-16T08:59:27.491Z,50.52
2023-04-16T09:01:59.080Z,45.38
2023-04-16T09:04:28.683Z,44.70
2023-04-16T09:06:57.725Z,46.42
2023-04-16T09:09:28.124Z,43.66
2023-04-16T09:11:57.120Z,43.76
2023-04-16T09:14:26.891Z,47.04
2023-04-16T09:16:55.726Z,46.38
2023-04-16T09:19:24.466Z,46.18
2023-04-16T09:21:52.749Z,47.25
2023-04-16T09:24:21.090Z,47.60
2023-04-16T09:26:49.748Z,49.89
2023-04-16T09:29:34.654Z,46.93
2023-04-16T09:32:04.566Z,46.23
2023-04-16T09:34:34.615Z,46.10
2023-04-16T09:37:18.234Z,46.14
2023-04-16T09:39:46.946Z,45.09
2023-04-16T09:42:15.696Z,45.43
2023-04-16T09:44:46.070Z,45.36
2023-04-16T09:47:14.370Z,45.50
2023-04-16T09:49:43.215Z,43.29
2023-04-16T09:52:14.695Z,42.87
2023-04-16T09:54:47.997Z,42.18
2023-04-16T09:57:20.733Z,42.22
2023-04-16T09:59:53.983Z,43.60
2023-04-16T10:02:23.759Z,43.97
2023-04-16T10:04:53.530Z,40.70
2023-04-16T10:07:22.296Z,43.16
2023-04-16T10:09:52.765Z,41.38
2023-04-16T10:12:21.501Z,43.88
2023-04-16T10:14:51.055Z,42.62
2023-04-16T10:17:19.683Z,41.27
2023-04-16T10:19:48.230Z,41.55
2023-04-16T10:22:16.464Z,41.32
2023-04-16T10:24:45.377Z,43.25
2023-04-16T10:27:13.579Z,41.62
2023-04-16T10:29:41.968Z,40.12
2023-04-16T10:32:11.762Z,40.86
2023-04-16T10:34:40.515Z,39.69
2023-04-16T10:37:08.807Z,38.91
2023-04-16T10:39:38.375Z,38.48
2023-04-16T10:42:10.774Z,39.64
2023-04-16T10:44:39.266Z,37.69
2023-04-16T10:47:13.296Z,39.20
2023-04-16T10:49:42.371Z,38.21
2023-04-16T10:52:12.551Z,36.58
2023-04-16T10:54:41.400Z,38.01
2023-04-16T10:57:10.704Z,36.85
2023-04-16T10:59:40.392Z,37.69
2023-04-16T11:02:10.646Z,36.18
2023-04-16T11:04:41.152Z,36.10
2023-04-16T11:07:16.347Z,38.11
2023-04-16T11:09:52.879Z,35.97
2023-04-16T11:12:22.450Z,35.90
2023-04-16T11:14:52.036Z,37.31
2023-04-16T11:17:21.051Z,37.11
2023-04-16T11:19:50.827Z,37.26
2023-04-16T11:22:22.045Z,37.42
2023-04-16T11:24:55.369Z,37.41
2023-04-16T11:27:23.769Z,39.35
2023-04-16T11:29:59.072Z,38.71
2023-04-16T11:32:27.397Z,39.72
2023-04-16T11:34:56.976Z,41.31
2023-04-16T11:37:34.028Z,39.74
2023-04-16T11:40:04.059Z,38.41
2023-04-16T11:42:32.329Z,39.27
2023-04-16T11:45:04.351Z,41.44
2023-04-16T11:47:32.898Z,40.72
2023-04-16T11:50:21.643Z,43.46
2023-04-16T11:52:50.403Z,42.11
2023-04-16T11:55:18.760Z,42.78
2023-04-16T11:57:47.381Z,45.08
2023-04-16T12:00:16.259Z,45.87
2023-04-16T12:02:45.417Z,45.83
2023-04-16T12:05:32.692Z,45.71
2023-04-16T12:08:02.587Z,44.80
2023-04-16T12:10:31.295Z,44.32
2023-04-16T12:13:12.232Z,44.42
2023-04-16T12:15:47.779Z,45.92
2023-04-16T12:18:16.901Z,45.06
2023-04-16T12:20:47.485Z,44.09
2023-04-16T12:23:25.107Z,45.19
2023-04-16T12:25:53.404Z,41.88
2023-04-16T12:28:29.053Z,41.95
2023-04-16T12:30:57.633Z,42.06
2023-04-16T12:33:26.331Z,41.74
2023-04-16T12:35:56.057Z,38.96
2023-04-16T12:38:25.556Z,38.87
2023-04-16T12:40:57.012Z,40.40
2023-04-16T12:43:26.031Z,38.09
2023-04-16T12:45:54.337Z,38.58
2023-04-16T12:48:22.630Z,38.67
2023-04-16T12:50:50.860Z,37.39
2023-04-16T12:53:20.489Z,38.25
2023-04-16T12:55:48.722Z,36.49
2023-04-16T12:58:16.965Z,35.83
2023-04-16T13:00:45.294Z,36.61
2023-04-16T13:03:13.640Z,36.02
2023-04-16T13:05:42.033Z,37.32
2023-04-16T13:08:10.262Z,35.65
2023-04-16T13:10:39.898Z,36.47
2023-04-16T13:13:08.204Z,35.63
2023-04-16T13:15:36.568Z,34.92
2023-04-16T13:18:05.244Z,35.67
2023-04-16T13:20:34.444Z,33.96
2023-04-16T13:23:04.869Z,35.30
2023-04-16T13:25:32.921Z,34.12
2023-04-16T13:28:02.520Z,34.31
2023-04-16T13:30:31.802Z,34.10
2023-04-16T13:33:00.673Z,34.89
2023-04-16T13:35:29.105Z,34.77
2023-04-16T13:37:57.368Z,34.83
2023-04-16T13:40:25.654Z,34.04
2023-04-16T13:42:53.864Z,34.76
2023-04-16T13:45:23.484Z,35.11
2023-04-16T13:47:51.743Z,35.59
2023-04-16T13:50:20.187Z,36.44
2023-04-16T13:52:48.500Z,37.76
2023-04-16T13:55:19.156Z,38.61
2023-04-16T13:57:48.156Z,39.84
2023-04-16T14:00:17.756Z,41.07
2023-04-16T14:02:48.809Z,41.76
2023-04-16T14:05:17.704Z,41.54
2023-04-16T14:07:46.285Z,41.42
2023-04-16T14:10:14.519Z,40.47
2023-04-16T14:12:44.745Z,41.22
2023-04-16T14:15:14.663Z,42.18
2023-04-16T14:17:43.874Z,41.30
2023-04-16T14:20:14.717Z,41.21
2023-04-16T14:22:43.895Z,41.08
2023-04-16T14:25:12.160Z,42.96
2023-04-16T14:27:41.263Z,44.38
2023-04-16T14:30:10.342Z,43.94
2023-04-16T14:32:38.638Z,44.11
2023-04-16T14:35:08.363Z,42.79
2023-04-16T14:37:38.943Z,43.51
2023-04-16T14:40:08.981Z,44.77
2023-04-16T14:42:37.665Z,45.21
2023-04-16T14:45:07.319Z,47.62
2023-04-16T14:47:36.441Z,45.95
2023-04-16T14:50:06.378Z,47.20
2023-04-16T14:52:34.756Z,48.42
2023-04-16T14:55:05.538Z,47.70
2023-04-16T14:57:33.843Z,46.58
2023-04-16T15:00:02.099Z,47.64
2023-04-16T15:02:30.468Z,48.02
2023-04-16T15:04:58.801Z,48.94
2023-04-16T15:07:27.686Z,48.20
2023-04-16T15:09:56.002Z,46.67
2023-04-16T15:12:26.490Z,47.90
2023-04-16T15:14:54.774Z,47.74
2023-04-16T15:17:23.175Z,46.32
2023-04-16T15:19:52.154Z,47.39
2023-04-16T15:22:20.444Z,47.05
2023-04-16T15:24:49.802Z,47.09
2023-04-16T15:27:19.296Z,48.27
2023-04-16T15:29:49.606Z,49.49
2023-04-16T15:32:17.988Z,47.33
2023-04-16T15:34:46.571Z,47.42
2023-04-16T15:37:14.866Z,46.21
2023-04-16T15:39:43.146Z,47.84
2023-04-16T15:42:13.208Z,48.88
2023-04-16T15:44:41.522Z,48.51
2023-04-16T15:47:11.270Z,49.55
2023-04-16T15:49:39.607Z,48.01
2023-04-16T15:52:07.926Z,47.13
2023-04-16T15:54:36.205Z,46.79
2023-04-16T15:57:04.770Z,46.50
2023-04-16T15:59:33.112Z,46.30
2023-04-16T16:02:01.527Z,45.96
2023-04-16T16:04:31.324Z,46.94
2023-04-16T16:06:59.651Z,46.27
2023-04-16T16:09:28.054Z,44.68
2023-04-16T16:11:57.938Z,44.13
2023-04-16T16:14:26.825Z,42.92
2023-04-16T16:16:55.125Z,45.00
2023-04-16T16:19:23.364Z,46.29
2023-04-16T16:21:52.966Z,47.67
2023-04-16T16:24:21.192Z,47.36
2023-04-16T16:26:49.500Z,46.50
2023-04-16T16:29:17.734Z,48.27
2023-04-16T16:31:45.990Z,48.39
2023-04-16T16:34:20.434Z,50.01
2023-04-16T16:36:49.693Z,49.04
2023-04-16T16:39:22.437Z,47.68
2023-04-16T16:41:52.335Z,48.02
2023-04-16T16:44:20.677Z,47.66
2023-04-16T16:46:49.340Z,47.91
2023-04-16T16:49:18.316Z,47.30
2023-04-16T16:51:46.927Z,46.26
2023-04-16T16:54:15.455Z,45.89
2023-04-16T16:56:45.143Z,45.73
2023-04-16T16:59:13.607Z,45.83
2023-04-16T17:01:41.902Z,46.51
2023-04-16T17:04:10.462Z,45.44
2023-04-16T17:06:39.331Z,46.23
2023-04-16T17:09:08.162Z,45.66
2023-04-16T17:11:36.414Z,46.01
2023-04-16T17:14:06.015Z,46.47
2023-04-16T17:16:34.252Z,45.69
2023-04-16T17:19:02.568Z,44.95
2023-04-16T17:21:32.133Z,46.93
2023-04-16T17:24:00.490Z,45.72
2023-04-16T17:26:28.771Z,46.33
2023-04-16T17:28:57.979Z,45.71
2023-04-16T17:31:27.786Z,46.35
2023-04-16T17:33:56.134Z,45.25
2023-04-16T17:36:25.507Z,47.18
2023-04-16T17:38:53.806Z,46.85
2023-04-16T17:41:22.051Z,46.10
2023-04-16T17:43:51.249Z,46.56
2023-04-16T17:46:19.561Z,47.92
2023-04-16T17:48:49.735Z,49.59
2023-04-16T17:51:17.984Z,50.06
2023-04-16T17:53:46.273Z,49.16
2023-04-16T17:56:15.417Z,52.24
2023-04-16T17:58:43.656Z,52.36
2023-04-16T18:01:12.069Z,50.46
2023-04-16T18:03:42.085Z,52.31
2023-04-16T18:06:11.781Z,50.92
2023-04-16T18:08:40.166Z,49.94
2023-04-16T18:11:09.127Z,50.61
2023-04-16T18:13:37.402Z,50.60
2023-04-16T18:16:07.109Z,50.69
2023-04-16T18:18:35.437Z,50.76
2023-04-16T18:21:03.747Z,51.29
2023-04-16T18:23:34.310Z,51.52
2023-04-16T18:26:02.640Z,51.75
2023-04-16T18:28:31.049Z,52.84
2023-04-16T18:31:03.864Z,54.77
2023-04-16T18:36:03.793Z,53.67
2023-04-16T18:38:33.405Z,53.67
2023-04-16T18:41:02.188Z,55.15
2023-04-16T18:43:31.008Z,54.14
2023-04-16T18:45:59.247Z,54.05
2023-04-16T18:48:27.500Z,53.63
2023-04-16T18:50:58.000Z,53.90
2023-04-16T18:53:26.354Z,54.59
2023-04-16T18:55:56.180Z,55.02
2023-04-16T18:58:24.430Z,54.92
2023-04-16T19:00:54.012Z,54.83
2023-04-16T19:03:22.519Z,56.74
2023-04-16T19:05:51.124Z,56.83
2023-04-16T19:08:19.386Z,56.60
2023-04-16T19:10:47.949Z,55.29
2023-04-16T19:13:18.462Z,55.15
2023-04-16T19:15:46.776Z,56.25
2023-04-16T19:18:15.070Z,56.71
2023-04-16T19:20:43.333Z,57.17
2023-04-16T19:23:11.622Z,57.71
2023-04-16T19:25:40.888Z,57.17
2023-04-16T19:28:09.129Z,58.97
2023-04-16T19:30:40.276Z,59.70
2023-04-16T19:33:08.545Z,62.33
2023-04-16T19:35:36.866Z,65.94
2023-04-16T19:38:05.092Z,62.58
2023-04-16T19:40:33.336Z,65.12
2023-04-16T19:43:01.644Z,63.32
2023-04-16T19:45:29.895Z,64.29
2023-04-16T19:47:59.585Z,62.73
2023-04-16T19:50:27.903Z,62.20
2023-04-16T19:52:56.208Z,61.63
2023-04-16T19:55:24.462Z,59.95
2023-04-16T19:57:52.736Z,60.14
2023-04-16T20:00:21.229Z,59.83
2023-04-16T20:02:49.779Z,60.07
2023-04-16T20:05:19.689Z,61.06
2023-04-16T20:07:47.938Z,65.38
2023-04-16T20:10:16.357Z,69.92
2023-04-16T20:12:44.602Z,66.02
2023-04-16T20:15:12.993Z,67.90
2023-04-16T20:17:41.349Z,66.60
2023-04-16T20:20:11.038Z,65.94
2023-04-16T20:22:40.972Z,65.87
2023-04-16T20:25:10.355Z,66.22
2023-04-16T20:27:38.663Z,65.78
2023-04-16T20:30:08.092Z,66.72
2023-04-16T20:32:36.357Z,63.78
2023-04-16T20:35:10.264Z,68.12
2023-04-16T20:37:42.045Z,70.36
2023-04-16T20:40:11.161Z,70.29
2023-04-16T20:42:40.824Z,67.55
2023-04-16T20:45:11.153Z,67.52
2023-04-16T20:47:39.492Z,65.93
2023-04-16T20:50:09.058Z,66.09
2023-04-16T20:52:37.534Z,65.49
2023-04-16T20:55:08.559Z,65.05
2023-04-16T20:57:36.856Z,64.99
2023-04-16T21:00:09.169Z,65.27
2023-04-16T21:02:37.635Z,65.54
2023-04-16T21:05:08.960Z,65.93
2023-04-16T21:07:37.294Z,66.30
2023-04-16T21:10:07.920Z,70.03
2023-04-16T21:12:35.948Z,68.12
2023-04-16T21:15:04.507Z,66.03
2023-04-16T21:17:32.769Z,66.51
2023-04-16T21:20:01.230Z,64.98
2023-04-16T21:22:29.549Z,63.75
2023-04-16T21:24:57.880Z,62.79
2023-04-16T21:27:27.584Z,61.66
2023-04-16T21:29:55.890Z,61.61
2023-04-16T21:32:24.136Z,62.10
2023-04-16T21:34:52.664Z,61.14
2023-04-16T21:37:20.962Z,60.44
2023-04-16T21:39:49.287Z,60.37
2023-04-16T21:42:17.622Z,60.78
2023-04-16T21:44:47.342Z,62.43
2023-04-16T21:47:15.810Z,60.82
2023-04-16T21:49:44.240Z,65.38
2023-04-16T21:52:14.285Z,61.81
2023-04-16T21:54:42.601Z,65.34
2023-04-16T21:57:11.548Z,64.67
2023-04-16T21:59:40.435Z,63.68
2023-04-16T22:02:10.099Z,63.19
2023-04-16T22:04:38.672Z,65.55
2023-04-16T22:07:08.963Z,65.10
2023-04-16T22:09:37.367Z,64.80
2023-04-16T22:12:07.194Z,64.24
2023-04-16T22:14:36.235Z,64.55
2023-04-16T22:17:04.853Z,68.49
2023-04-16T22:19:34.839Z,67.56
2023-04-16T22:22:03.085Z,70.80
2023-04-16T22:24:31.419Z,68.34
2023-04-16T22:26:59.798Z,65.96
2023-04-16T22:29:28.036Z,64.61
2023-04-16T22:31:56.423Z,63.86
2023-04-16T22:34:24.742Z,63.44
2023-04-16T22:36:54.449Z,63.19
2023-04-16T22:39:22.695Z,62.40
2023-04-16T22:41:51.573Z,62.63
2023-04-16T22:44:19.853Z,65.52
2023-04-16T22:46:48.112Z,64.75
2023-04-16T22:49:16.331Z,62.84
2023-04-16T22:51:44.777Z,61.78
2023-04-16T22:54:14.388Z,65.59
2023-04-16T22:56:42.721Z,62.40
2023-04-16T22:59:11.305Z,65.21
2023-04-16T23:01:39.680Z,63.40
2023-04-16T23:04:08.019Z,62.43
2023-04-16T23:06:36.259Z,61.97
2023-04-16T23:09:05.140Z,61.77
2023-04-16T23:11:34.736Z,62.23
2023-04-16T23:14:03.304Z,63.41
2023-04-16T23:16:31.543Z,63.48
2023-04-16T23:18:59.784Z,62.67
2023-04-16T23:21:28.012Z,66.84
2023-04-16T23:23:57.161Z,64.92
2023-04-16T23:26:25.522Z,65.29
2023-04-16T23:28:55.157Z,62.66
2023-04-16T23:31:23.552Z,62.59
2023-04-16T23:33:51.846Z,62.02
2023-04-16T23:36:20.060Z,61.07
2023-04-16T23:38:48.774Z,61.10
2023-04-16T23:41:17.055Z,60.99
2023-04-16T23:43:45.287Z,61.28
2023-04-16T23:46:14.839Z,61.34
2023-04-16T23:48:43.180Z,59.43
2023-04-16T23:51:11.450Z,58.87
2023-04-16T23:53:40.821Z,59.82
2023-04-16T23:56:11.063Z,60.31
2023-04-16T23:58:39.430Z,60.23
